createdAt,value
2022-08-03T00:01:43.128Z,20.06
2022-08-03T00:04:10.944Z,20.00
2022-08-03T00:06:40.361Z,19.99
2022-08-03T00:09:07.592Z,19.95
2022-08-03T00:11:34.488Z,19.84
2022-08-03T00:14:01.295Z,19.82
2022-08-03T00:16:28.120Z,19.81
2022-08-03T00:18:54.740Z,19.92
2022-08-03T00:21:21.550Z,19.89
2022-08-03T00:23:51.277Z,19.83
2022-08-03T00:26:21.270Z,19.82
2022-08-03T00:28:48.580Z,19.85
2022-08-03T00:31:15.672Z,19.76
2022-08-03T00:33:59.023Z,19.68
2022-08-03T00:36:27.273Z,19.58
2022-08-03T00:38:55.020Z,19.49
2022-08-03T00:41:21.999Z,19.51
2022-08-03T00:43:48.647Z,19.48
2022-08-03T00:46:19.194Z,19.50
2022-08-03T00:48:53.241Z,19.49
2022-08-03T00:51:21.079Z,19.49
2022-08-03T00:53:48.772Z,19.48
2022-08-03T00:56:16.016Z,19.57
2022-08-03T00:58:46.474Z,19.61
2022-08-03T01:01:14.375Z,19.67
2022-08-03T01:03:41.355Z,19.73
2022-08-03T01:06:23.123Z,19.80
2022-08-03T01:09:03.351Z,19.83
2022-08-03T01:12:01.193Z,19.81
2022-08-03T01:14:37.905Z,19.79
2022-08-03T01:17:11.870Z,19.77
2022-08-03T01:19:56.124Z,19.68
2022-08-03T01:22:50.338Z,19.67
2022-08-03T01:25:33.579Z,19.65
2022-08-03T01:28:22.817Z,19.65
2022-08-03T01:30:52.879Z,19.74
2022-08-03T01:33:27.815Z,19.82
2022-08-03T01:36:00.272Z,19.83
2022-08-03T01:38:31.885Z,19.86
2022-08-03T01:41:07.014Z,19.93
2022-08-03T01:44:28.173Z,19.92
2022-08-03T01:46:25.097Z,19.83
2022-08-03T01:48:54.253Z,19.85
2022-08-03T01:51:22.791Z,19.86
2022-08-03T01:53:54.310Z,19.96
2022-08-03T01:56:24.188Z,19.98
2022-08-03T01:58:53.128Z,20.02
2022-08-03T02:01:22.159Z,19.98
2022-08-03T02:03:59.930Z,19.98
2022-08-03T02:07:01.223Z,19.96
2022-08-03T02:09:20.550Z,19.98
2022-08-03T02:11:48.912Z,20.00
2022-08-03T02:14:16.617Z,20.05
2022-08-03T02:16:45.424Z,20.13
2022-08-03T02:19:13.242Z,20.15
2022-08-03T02:21:56.426Z,20.18
2022-08-03T02:24:29.307Z,20.26
2022-08-03T02:26:56.997Z,20.31
2022-08-03T02:29:39.213Z,20.34
2022-08-03T02:32:17.339Z,20.36
2022-08-03T02:34:47.109Z,20.29
2022-08-03T02:37:17.570Z,20.37
2022-08-03T02:39:46.300Z,20.44
2022-08-03T02:42:15.882Z,20.47
2022-08-03T02:44:47.928Z,20.49
2022-08-03T02:47:16.509Z,20.47
2022-08-03T02:49:50.849Z,20.51
2022-08-03T02:52:24.930Z,20.58
2022-08-03T02:54:54.427Z,20.57
2022-08-03T02:57:22.656Z,20.49
2022-08-03T02:59:50.028Z,20.42
2022-08-03T03:02:18.079Z,20.36
2022-08-03T03:05:53.693Z,20.30
2022-08-03T03:07:52.231Z,20.28
2022-08-03T03:10:25.259Z,20.31
2022-08-03T03:12:55.823Z,20.27
2022-08-03T03:15:25.465Z,20.26
2022-08-03T03:17:53.047Z,20.26
2022-08-03T03:20:29.017Z,20.27
2022-08-03T03:23:00.934Z,20.32
2022-08-03T03:25:31.121Z,20.33
2022-08-03T03:28:02.325Z,20.25
2022-08-03T03:30:29.781Z,20.21
2022-08-03T03:32:58.621Z,20.23
2022-08-03T03:35:27.138Z,20.21
2022-08-03T03:37:54.118Z,20.23
2022-08-03T03:40:21.768Z,20.38
2022-08-03T03:42:49.360Z,20.43
2022-08-03T03:45:16.563Z,20.45
2022-08-03T03:47:43.603Z,20.44
2022-08-03T03:50:10.405Z,20.50
2022-08-03T03:52:37.316Z,20.56
2022-08-03T03:55:04.658Z,20.62
2022-08-03T03:57:31.422Z,20.67
2022-08-03T03:59:58.293Z,20.67
2022-08-03T04:02:25.250Z,20.70
2022-08-03T04:05:10.692Z,20.72
2022-08-03T04:08:18.441Z,20.76
2022-08-03T04:11:06.868Z,20.73
2022-08-03T04:13:38.352Z,20.77
2022-08-03T04:16:10.064Z,20.81
2022-08-03T04:18:40.131Z,20.80
2022-08-03T04:21:10.958Z,20.79
2022-08-03T04:23:40.919Z,20.82
2022-08-03T04:26:11.335Z,20.92
2022-08-03T04:28:44.140Z,20.96
2022-08-03T04:31:13.003Z,20.99
2022-08-03T04:33:43.285Z,21.00
2022-08-03T04:36:15.447Z,21.01
2022-08-03T04:39:14.149Z,21.08
2022-08-03T04:42:07.065Z,21.20
2022-08-03T04:44:35.151Z,21.39
2022-08-03T04:47:02.151Z,21.39
2022-08-03T04:49:30.215Z,21.50
2022-08-03T04:51:58.052Z,21.52
2022-08-03T04:54:24.938Z,21.62
2022-08-03T04:56:52.579Z,21.74
2022-08-03T04:59:19.979Z,21.81
2022-08-03T05:01:47.680Z,21.89
2022-08-03T05:04:14.573Z,22.04
2022-08-03T05:06:48.411Z,22.22
2022-08-03T05:09:39.564Z,22.65
2022-08-03T05:12:09.714Z,23.00
2022-08-03T05:14:38.305Z,23.32
2022-08-03T05:17:05.761Z,23.58
2022-08-03T05:19:32.974Z,23.73
2022-08-03T05:22:00.074Z,23.94
2022-08-03T05:24:27.329Z,24.18
2022-08-03T05:26:54.115Z,24.31
2022-08-03T05:29:21.255Z,24.30
2022-08-03T05:31:48.064Z,24.55
2022-08-03T05:34:14.947Z,24.60
2022-08-03T05:36:41.794Z,24.66
2022-08-03T05:39:10.500Z,24.76
2022-08-03T05:41:41.593Z,24.98
2022-08-03T05:44:08.611Z,25.07
2022-08-03T05:46:36.484Z,25.15
2022-08-03T05:49:04.104Z,25.06
2022-08-03T06:05:16.283Z,24.49
2022-08-03T06:09:05.317Z,25.13
2022-08-03T06:12:53.643Z,25.11
2022-08-03T06:16:35.873Z,25.48
2022-08-03T06:20:10.294Z,25.77
2022-08-03T06:23:52.879Z,25.92
2022-08-03T06:27:00.565Z,26.13
2022-08-03T06:30:49.773Z,26.57
2022-08-03T06:34:38.755Z,26.80
2022-08-03T06:38:27.066Z,27.03
2022-08-03T06:42:16.392Z,27.26
2022-08-03T06:45:24.700Z,27.46
2022-08-03T06:49:13.692Z,27.36
2022-08-03T06:53:02.823Z,27.51
2022-08-03T06:56:51.700Z,27.52
2022-08-03T07:00:40.645Z,27.62
2022-08-03T07:04:28.457Z,27.74
2022-08-03T07:08:17.459Z,27.66
2022-08-03T07:12:22.625Z,27.79
2022-08-03T07:16:11.628Z,27.83
2022-08-03T07:19:13.960Z,27.67
2022-08-03T07:23:02.155Z,27.89
2022-08-03T07:26:21.844Z,29.43
2022-08-03T07:29:54.690Z,30.88
2022-08-03T07:33:28.644Z,31.72
2022-08-03T07:37:17.473Z,32.27
2022-08-03T07:40:55.746Z,33.35
2022-08-03T07:44:00.529Z,33.83
2022-08-03T07:46:58.070Z,34.42
2022-08-03T07:50:47.586Z,34.09
2022-08-03T07:54:10.980Z,33.89
2022-08-03T07:57:52.656Z,34.22
2022-08-03T08:01:41.744Z,34.51
2022-08-03T08:05:10.898Z,34.82
2022-08-03T08:08:41.475Z,35.38
2022-08-03T08:12:23.797Z,35.42
2022-08-03T08:15:56.306Z,35.01
2022-08-03T08:19:16.985Z,35.77
2022-08-03T08:23:02.787Z,36.17
2022-08-03T08:26:52.555Z,36.52
2022-08-03T08:30:41.822Z,36.81
2022-08-03T08:34:12.259Z,37.14
2022-08-03T08:37:51.106Z,36.88
2022-08-03T08:41:40.559Z,36.40
2022-08-03T08:45:27.855Z,36.68
2022-08-03T08:49:16.837Z,35.78
2022-08-03T08:53:06.340Z,36.96
2022-08-03T08:56:53.296Z,37.23
2022-08-03T09:00:42.537Z,37.42
2022-08-03T09:04:32.264Z,37.70
2022-08-03T09:08:21.261Z,37.69
2022-08-03T09:12:37.585Z,37.64
2022-08-03T09:16:27.358Z,37.96
2022-08-03T09:20:13.416Z,38.19
2022-08-03T09:24:04.393Z,38.14
2022-08-03T09:27:55.058Z,38.28
2022-08-03T09:31:45.899Z,38.62
2022-08-03T09:39:48.453Z,38.48
2022-08-03T09:43:38.280Z,39.04
2022-08-03T09:47:33.917Z,39.24
2022-08-03T09:52:32.530Z,39.29
2022-08-03T09:56:33.346Z,38.85
2022-08-03T09:59:53.905Z,39.33
2022-08-03T10:04:03.124Z,39.15
2022-08-03T10:08:02.332Z,38.70
2022-08-03T10:11:51.675Z,38.81
2022-08-03T10:16:22.593Z,39.61
2022-08-03T10:19:50.604Z,38.76
2022-08-03T10:23:39.832Z,39.08
2022-08-03T10:27:29.160Z,38.83
2022-08-03T10:31:19.303Z,39.71
2022-08-03T10:35:00.152Z,39.89
2022-08-03T10:38:58.766Z,39.59
2022-08-03T10:42:36.182Z,38.92
2022-08-03T10:46:26.110Z,39.34
2022-08-03T10:50:18.260Z,40.08
2022-08-03T10:54:16.270Z,39.80
2022-08-03T10:57:59.198Z,40.55
2022-08-03T11:02:00.304Z,40.12
2022-08-03T11:06:08.175Z,40.60
2022-08-03T11:10:12.388Z,40.32
2022-08-03T11:14:07.682Z,40.47
2022-08-03T11:18:11.109Z,40.33
2022-08-03T11:22:01.191Z,40.60
2022-08-03T11:25:55.021Z,39.90
2022-08-03T11:30:03.102Z,40.42
2022-08-03T11:33:52.575Z,39.68
2022-08-03T11:37:38.712Z,40.29
2022-08-03T11:41:54.776Z,40.74
2022-08-03T11:45:44.429Z,41.02
2022-08-03T11:49:36.572Z,42.60
2022-08-03T11:53:25.640Z,42.99
2022-08-03T11:59:00.850Z,41.90
2022-08-03T12:01:39.779Z,41.58
2022-08-03T12:05:35.338Z,41.49
2022-08-03T12:09:27.300Z,42.56
2022-08-03T12:14:44.122Z,42.71
2022-08-03T12:17:28.910Z,41.67
2022-08-03T12:21:18.521Z,40.94
2022-08-03T12:25:07.940Z,40.35
2022-08-03T12:28:44.958Z,40.59
2022-08-03T12:32:19.422Z,38.33
2022-08-03T12:36:08.793Z,38.88
2022-08-03T12:40:02.528Z,39.46
2022-08-03T12:43:55.789Z,39.42
2022-08-03T12:47:45.114Z,38.87
2022-08-03T12:51:34.175Z,39.09
2022-08-03T12:55:16.934Z,38.90
2022-08-03T12:59:11.907Z,40.05
2022-08-03T13:03:38.292Z,40.17
2022-08-03T13:07:14.783Z,41.07
2022-08-03T13:11:00.776Z,41.26
2022-08-03T13:14:38.804Z,40.93
2022-08-03T13:18:28.438Z,41.64
2022-08-03T13:22:17.412Z,41.32
2022-08-03T13:25:55.772Z,41.81
2022-08-03T13:29:45.108Z,41.39
2022-08-03T13:33:27.087Z,41.73
2022-08-03T13:37:16.271Z,41.59
2022-08-03T13:41:04.858Z,42.07
2022-08-03T13:44:55.148Z,42.34
2022-08-03T13:48:47.211Z,42.94
2022-08-03T13:52:36.601Z,42.53
2022-08-03T13:56:07.191Z,42.77
2022-08-03T13:59:55.593Z,42.34
2022-08-03T14:03:45.338Z,42.60
2022-08-03T14:07:36.760Z,42.35
2022-08-03T14:11:25.862Z,42.12
2022-08-03T14:15:38.153Z,42.36
2022-08-03T14:19:16.366Z,42.99
2022-08-03T14:23:14.504Z,42.98
2022-08-03T14:27:09.070Z,42.07
2022-08-03T14:30:58.663Z,42.37
2022-08-03T14:34:47.333Z,42.88
2022-08-03T14:38:37.977Z,43.01
2022-08-03T14:42:27.845Z,43.23
2022-08-03T14:46:17.874Z,43.20
2022-08-03T14:50:38.829Z,43.01
2022-08-03T14:54:17.895Z,42.77
2022-08-03T14:58:20.027Z,42.68
2022-08-03T15:02:19.808Z,42.16
2022-08-03T15:06:13.409Z,42.22
2022-08-03T15:10:03.209Z,42.54
2022-08-03T15:13:52.608Z,42.04
2022-08-03T15:17:42.866Z,42.07
2022-08-03T15:21:47.216Z,42.53
2022-08-03T15:26:04.089Z,42.20
2022-08-03T15:30:06.716Z,41.56
2022-08-03T15:33:55.293Z,41.68
2022-08-03T15:37:44.752Z,41.69
2022-08-03T15:41:34.382Z,41.72
2022-08-03T15:45:17.763Z,41.52
2022-08-03T15:48:47.296Z,41.61
2022-08-03T15:52:09.477Z,41.43
2022-08-03T15:55:58.763Z,41.48
2022-08-03T15:59:48.101Z,41.81
2022-08-03T16:03:36.626Z,41.78
2022-08-03T16:07:15.815Z,41.42
2022-08-03T16:11:07.813Z,41.58
2022-08-03T16:14:52.685Z,40.96
2022-08-03T16:17:51.486Z,40.87
2022-08-03T16:21:06.263Z,40.64
2022-08-03T16:25:03.526Z,40.60
2022-08-03T16:28:52.819Z,40.93
2022-08-03T16:31:51.221Z,40.45
2022-08-03T16:35:32.780Z,40.26
2022-08-03T16:39:22.801Z,40.40
2022-08-03T16:43:18.108Z,40.28
2022-08-03T16:47:00.044Z,40.66
2022-08-03T16:50:50.141Z,40.32
2022-08-03T16:54:39.530Z,40.23
2022-08-03T16:58:41.368Z,40.32
2022-08-03T17:02:32.669Z,40.46
2022-08-03T17:06:22.408Z,40.71
2022-08-03T17:10:14.297Z,40.56
2022-08-03T17:14:10.033Z,40.31
2022-08-03T17:21:32.855Z,39.88
2022-08-03T17:25:51.400Z,39.15
2022-08-03T17:29:48.658Z,38.14
2022-08-03T17:33:39.205Z,37.46
2022-08-03T17:37:57.830Z,37.15
2022-08-03T17:41:38.776Z,36.99
2022-08-03T17:45:52.139Z,37.03
2022-08-03T17:49:42.414Z,36.89
2022-08-03T17:53:32.540Z,36.51
2022-08-03T17:57:22.396Z,36.05
2022-08-03T18:02:01.965Z,35.79
2022-08-03T18:06:10.707Z,35.26
2022-08-03T18:10:06.657Z,35.14
2022-08-03T18:13:39.695Z,34.96
2022-08-03T18:17:55.697Z,34.67
2022-08-03T18:22:03.107Z,34.23
2022-08-03T18:25:57.930Z,33.93
2022-08-03T18:29:40.459Z,33.69
2022-08-03T18:34:18.877Z,33.29
2022-08-03T18:36:18.033Z,32.90
2022-08-03T18:39:49.816Z,32.66
2022-08-03T18:43:22.813Z,32.37
2022-08-03T18:47:52.269Z,32.02
2022-08-03T18:51:50.745Z,31.58
2022-08-03T18:56:01.870Z,31.10
2022-08-03T18:59:54.589Z,30.85
2022-08-03T19:03:48.287Z,30.73
2022-08-03T19:07:44.245Z,30.45
2022-08-03T19:12:12.740Z,30.24
2022-08-03T19:15:57.631Z,29.94
2022-08-03T19:19:49.541Z,29.69
2022-08-03T19:23:38.976Z,29.34
2022-08-03T19:27:30.478Z,29.08
2022-08-03T19:35:19.032Z,28.79
2022-08-03T19:39:20.550Z,28.53
2022-08-03T19:43:12.175Z,28.16
2022-08-03T19:47:00.083Z,27.82
2022-08-03T19:50:50.218Z,27.55
2022-08-03T19:54:45.666Z,27.49
2022-08-03T19:58:43.735Z,27.55
2022-08-03T20:02:35.739Z,27.38
2022-08-03T20:05:51.897Z,27.21
2022-08-03T20:09:44.584Z,27.13
2022-08-03T20:13:39.067Z,26.90
2022-08-03T20:17:55.500Z,26.62
2022-08-03T20:21:42.124Z,26.57
2022-08-03T20:25:38.112Z,26.44
2022-08-03T20:30:05.445Z,26.31
2022-08-03T20:33:51.048Z,26.17
2022-08-03T20:37:40.443Z,26.03
2022-08-03T20:41:31.848Z,25.97
2022-08-03T20:46:00.390Z,26.01
2022-08-03T20:49:45.534Z,26.06
2022-08-03T20:54:00.126Z,25.97
2022-08-03T20:57:49.214Z,25.94
2022-08-03T21:01:44.828Z,25.77
2022-08-03T21:05:51.363Z,25.49
2022-08-03T21:09:44.117Z,25.44
2022-08-03T21:13:13.133Z,28.93
2022-08-03T21:13:39.926Z,25.51
2022-08-03T21:17:40.565Z,25.45
2022-08-03T21:21:31.632Z,25.19
2022-08-03T21:25:21.275Z,24.99
2022-08-03T21:29:11.038Z,24.68
2022-08-03T21:33:00.636Z,24.58
2022-08-03T21:36:50.099Z,24.71
2022-08-03T21:40:40.861Z,24.83
2022-08-03T21:44:31.486Z,24.79
2022-08-03T21:48:24.045Z,24.65
2022-08-03T21:52:13.451Z,24.60
2022-08-03T21:56:05.892Z,24.49
2022-08-03T21:59:54.930Z,24.39
2022-08-03T22:03:53.004Z,24.26
2022-08-03T22:07:25.709Z,24.27
2022-08-03T22:11:15.022Z,24.26
2022-08-03T22:15:04.172Z,24.26
2022-08-03T22:22:54.962Z,24.07
2022-08-03T22:26:45.062Z,23.88
2022-08-03T22:30:34.009Z,23.92
2022-08-03T22:34:24.434Z,23.86
2022-08-03T22:38:00.298Z,23.86
2022-08-03T22:41:49.172Z,23.90
2022-08-03T22:46:07.428Z,23.97
2022-08-03T22:49:29.963Z,23.92
2022-08-03T22:53:18.997Z,23.80
2022-08-03T22:57:07.981Z,23.58
2022-08-03T23:00:57.145Z,23.64
2022-08-03T23:04:46.062Z,23.72
2022-08-03T23:08:34.947Z,23.80
2022-08-03T23:12:23.810Z,23.83
2022-08-03T23:16:12.738Z,23.88
2022-08-03T23:20:01.609Z,23.83
2022-08-03T23:23:50.498Z,23.64
2022-08-03T23:27:39.309Z,23.47
2022-08-03T23:31:28.090Z,23.48
2022-08-03T23:35:15.632Z,23.54
2022-08-03T23:39:05.115Z,23.49
2022-08-03T23:42:53.974Z,23.37
2022-08-03T23:46:42.813Z,23.25
2022-08-03T23:50:31.715Z,23.20
2022-08-03T23:54:29.280Z,23.23
2022-08-03T23:58:23.895Z,23.14
